createdAt,value
2023-04-15T00:03:45.461Z,3.87
2023-04-15T00:08:48.217Z,3.43
2023-04-15T00:13:50.016Z,3.10
2023-04-15T00:18:51.851Z,3.13
2023-04-15T00:23:53.842Z,3.00
2023-04-15T00:28:55.498Z,3.27
2023-04-15T00:33:57.166Z,3.03
2023-04-15T00:38:59.079Z,2.87
2023-04-15T00:44:02.491Z,3.07
2023-04-15T00:49:06.397Z,2.93
2023-04-15T00:54:08.019Z,3.47
2023-04-15T00:59:10.084Z,3.27
2023-04-15T01:04:12.352Z,3.10
2023-04-15T01:09:13.978Z,3.13
2023-04-15T01:14:16.171Z,2.97
2023-04-15T01:19:18.146Z,3.10
2023-04-15T01:24:20.118Z,3.40
2023-04-15T01:29:22.556Z,3.87
2023-04-15T01:34:24.183Z,3.63
2023-04-15T01:39:26.075Z,3.30
2023-04-15T01:44:27.772Z,5.27
2023-04-15T01:49:29.472Z,3.53
2023-04-15T01:54:31.556Z,3.33
2023-04-15T01:59:33.154Z,4.17
2023-04-15T02:04:34.943Z,3.23
2023-04-15T02:09:36.533Z,3.50
2023-04-15T02:14:38.081Z,3.10
2023-04-15T02:19:40.596Z,3.43
2023-04-15T02:24:42.194Z,3.40
2023-04-15T02:29:46.874Z,3.50
2023-04-15T02:34:48.749Z,3.20
2023-04-15T02:39:50.659Z,3.00
2023-04-15T02:44:52.234Z,3.23
2023-04-15T02:49:53.851Z,3.03
2023-04-15T02:55:00.512Z,3.60
2023-04-15T03:00:02.308Z,4.07
2023-04-15T03:05:04.594Z,3.67
2023-04-15T03:10:07.399Z,3.80
2023-04-15T03:15:09.972Z,4.17
2023-04-15T03:20:11.813Z,3.60
2023-04-15T03:25:13.583Z,3.40
2023-04-15T03:30:15.290Z,3.77
2023-04-15T03:35:17.230Z,4.00
2023-04-15T03:40:19.061Z,4.17
2023-04-15T03:45:20.726Z,4.07
2023-04-15T03:50:22.415Z,3.90
2023-04-15T03:55:24.012Z,3.83
2023-04-15T04:00:25.652Z,4.00
2023-04-15T04:05:27.277Z,4.47
2023-04-15T04:10:28.825Z,4.33
2023-04-15T04:15:30.552Z,4.30
2023-04-15T04:20:32.273Z,4.40
2023-04-15T04:25:33.832Z,4.33
2023-04-15T04:30:36.232Z,4.20
2023-04-15T04:35:37.967Z,4.23
2023-04-15T04:40:39.749Z,3.40
2023-04-15T04:45:41.981Z,4.17
2023-04-15T04:50:45.168Z,3.80
2023-04-15T04:55:46.841Z,4.10
2023-04-15T05:00:48.507Z,4.07
2023-04-15T05:05:50.352Z,3.97
2023-04-15T05:10:52.088Z,3.87
2023-04-15T05:15:53.805Z,3.83
2023-04-15T05:20:55.545Z,3.90
2023-04-15T05:25:57.272Z,3.80
2023-04-15T05:30:59.049Z,3.80
2023-04-15T05:36:00.804Z,3.77
2023-04-15T05:41:02.531Z,3.27
2023-04-15T05:46:04.458Z,4.13
2023-04-15T05:51:06.553Z,3.93
2023-04-15T05:56:08.352Z,3.83
2023-04-15T06:01:09.998Z,3.53
2023-04-15T06:06:11.656Z,3.50
2023-04-15T06:11:13.419Z,3.40
2023-04-15T06:16:15.138Z,3.87
2023-04-15T06:21:16.786Z,3.73
2023-04-15T06:26:18.428Z,3.40
2023-04-15T06:31:20.169Z,4.33
2023-04-15T06:36:22.122Z,3.90
2023-04-15T06:41:23.997Z,4.23
2023-04-15T06:46:26.092Z,4.27
2023-04-15T06:51:27.817Z,3.70
2023-04-15T06:56:29.686Z,4.50
2023-04-15T07:01:31.509Z,3.93
2023-04-15T07:06:33.887Z,3.60
2023-04-15T07:11:36.524Z,3.70
2023-04-15T07:16:38.165Z,3.67
2023-04-15T07:21:41.812Z,3.67
2023-04-15T07:26:44.651Z,3.23
2023-04-15T07:31:46.397Z,3.57
2023-04-15T07:36:52.074Z,3.40
2023-04-15T07:41:53.727Z,3.70
2023-04-15T07:46:56.165Z,4.00
2023-04-15T07:51:57.895Z,3.70
2023-04-15T07:56:59.560Z,3.40
2023-04-15T08:02:01.399Z,2.90
2023-04-15T08:07:04.103Z,3.20
2023-04-15T08:12:06.497Z,3.30
2023-04-15T08:17:08.205Z,3.87
2023-04-15T08:22:17.657Z,2.77
2023-04-15T08:27:20.235Z,2.83
2023-04-15T08:32:22.756Z,2.97
2023-04-15T08:37:24.492Z,2.90
2023-04-15T08:42:35.315Z,3.13
2023-04-15T08:47:38.858Z,3.67
2023-04-15T08:52:40.608Z,3.77
2023-04-15T08:57:42.248Z,3.90
2023-04-15T09:02:44.250Z,3.10
2023-04-15T09:07:46.235Z,3.33
2023-04-15T09:12:47.819Z,3.30
2023-04-15T09:17:49.561Z,3.10
2023-04-15T09:22:52.309Z,3.20
2023-04-15T09:27:59.232Z,3.17
2023-04-15T09:33:04.919Z,2.87
2023-04-15T09:38:08.017Z,3.00
2023-04-15T09:43:13.178Z,3.20
2023-04-15T09:48:29.127Z,3.07
2023-04-15T09:53:34.490Z,2.73
2023-04-15T09:58:38.711Z,3.90
2023-04-15T10:03:42.537Z,3.37
2023-04-15T10:08:44.374Z,3.63
2023-04-15T10:13:47.243Z,2.80
2023-04-15T10:18:55.728Z,13.07
2023-04-15T10:23:58.674Z,7.67
2023-04-15T10:29:01.392Z,12.73
2023-04-15T10:34:06.505Z,4.37
2023-04-15T10:39:34.369Z,3.50
2023-04-15T10:44:38.392Z,7.43
2023-04-15T10:49:45.720Z,2.40
2023-04-15T10:54:47.690Z,3.07
2023-04-15T10:59:58.812Z,2.67
2023-04-15T11:07:05.788Z,3.33
2023-04-15T11:12:09.627Z,3.20
2023-04-15T11:17:11.762Z,2.47
2023-04-15T11:22:13.546Z,2.90
2023-04-15T11:27:24.311Z,4.03
2023-04-15T11:32:26.055Z,3.53
2023-04-15T11:37:32.378Z,14.23
2023-04-15T11:42:48.766Z,3.33
2023-04-15T11:47:51.135Z,2.40
2023-04-15T11:53:06.229Z,2.70
2023-04-15T11:58:17.071Z,2.70
2023-04-15T12:03:27.789Z,2.57
2023-04-15T12:08:49.154Z,2.27
2023-04-15T12:13:51.408Z,2.40
2023-04-15T12:18:58.965Z,2.43
2023-04-15T12:24:04.510Z,3.07
2023-04-15T12:29:08.374Z,3.23
2023-04-15T12:34:10.025Z,2.77
2023-04-15T12:39:11.772Z,3.27
2023-04-15T12:44:13.497Z,2.87
2023-04-15T12:49:16.073Z,3.07
2023-04-15T12:54:18.796Z,2.67
2023-04-15T12:59:21.184Z,2.63
2023-04-15T13:04:23.274Z,2.80
2023-04-15T13:09:25.240Z,3.27
2023-04-15T13:14:27.310Z,3.50
2023-04-15T13:19:28.950Z,2.37
2023-04-15T13:24:30.795Z,2.50
2023-04-15T13:29:32.816Z,2.63
2023-04-15T13:34:34.531Z,3.17
2023-04-15T13:39:36.445Z,2.70
2023-04-15T13:44:38.586Z,2.87
2023-04-15T13:49:40.667Z,3.03
2023-04-15T13:54:42.438Z,3.07
2023-04-15T13:59:44.363Z,2.87
2023-04-15T14:04:46.006Z,2.73
2023-04-15T14:09:48.346Z,3.03
2023-04-15T14:14:50.086Z,2.67
2023-04-15T14:19:51.789Z,4.03
2023-04-15T14:24:54.775Z,4.30
2023-04-15T14:29:57.862Z,3.47
2023-04-15T14:34:59.596Z,3.10
2023-04-15T14:40:01.234Z,3.40
2023-04-15T14:45:02.964Z,2.90
2023-04-15T14:50:05.120Z,2.97
2023-04-15T14:55:10.426Z,2.60
2023-04-15T15:00:15.841Z,3.40
2023-04-15T15:05:18.153Z,3.13
2023-04-15T15:10:38.181Z,2.43
2023-04-15T15:15:42.185Z,2.40
2023-04-15T15:20:44.073Z,2.50
2023-04-15T15:25:46.586Z,2.50
2023-04-15T15:30:48.402Z,2.63
2023-04-15T15:35:51.424Z,2.23
2023-04-15T15:40:53.084Z,2.00
2023-04-15T15:45:55.644Z,1.80
2023-04-15T15:50:57.554Z,1.77
2023-04-15T15:55:59.208Z,1.63
2023-04-15T16:01:01.928Z,1.60
2023-04-15T16:06:04.608Z,1.87
2023-04-15T16:11:06.485Z,1.70
2023-04-15T16:16:08.274Z,1.50
2023-04-15T16:21:10.166Z,3.07
2023-04-15T16:26:11.854Z,1.50
2023-04-15T16:31:13.601Z,1.77
2023-04-15T16:36:15.617Z,1.70
2023-04-15T16:41:18.629Z,1.80
2023-04-15T16:46:20.414Z,1.83
2023-04-15T16:51:22.072Z,1.73
2023-04-15T16:56:23.979Z,1.93
2023-04-15T17:01:25.784Z,2.00
2023-04-15T17:06:27.933Z,2.03
2023-04-15T17:11:29.704Z,1.77
2023-04-15T17:16:31.455Z,1.73
2023-04-15T17:21:34.789Z,1.70
2023-04-15T17:26:36.516Z,1.77
2023-04-15T17:31:38.291Z,2.20
2023-04-15T17:36:40.137Z,1.93
2023-04-15T17:41:41.883Z,1.93
2023-04-15T17:46:43.658Z,2.30
2023-04-15T17:51:46.717Z,2.20
2023-04-15T17:56:49.388Z,2.30
2023-04-15T18:01:51.205Z,2.00
2023-04-15T18:06:52.971Z,2.30
2023-04-15T18:11:54.593Z,2.33
2023-04-15T18:16:56.615Z,2.20
2023-04-15T18:22:00.242Z,2.40
2023-04-15T18:27:02.452Z,2.33
2023-04-15T18:32:04.275Z,2.70
2023-04-15T18:37:06.461Z,2.63
2023-04-15T18:42:08.190Z,3.37
2023-04-15T18:47:09.829Z,2.80
2023-04-15T18:52:11.775Z,2.60
2023-04-15T18:57:13.436Z,2.70
2023-04-15T19:02:18.446Z,3.60
2023-04-15T19:07:20.216Z,2.83
2023-04-15T19:12:21.888Z,3.20
2023-04-15T19:17:23.797Z,2.90
2023-04-15T19:22:25.539Z,3.13
2023-04-15T19:27:27.247Z,3.20
2023-04-15T19:32:28.996Z,3.50
2023-04-15T19:37:30.710Z,3.40
2023-04-15T19:42:32.510Z,3.77
2023-04-15T19:47:34.834Z,3.73
2023-04-15T19:52:36.679Z,4.50
2023-04-15T19:57:38.430Z,3.70
2023-04-15T20:02:40.390Z,3.70
2023-04-15T20:07:42.759Z,4.17
2023-04-15T20:12:49.807Z,3.83
2023-04-15T20:17:54.428Z,3.87
2023-04-15T20:22:56.155Z,6.10
2023-04-15T20:28:00.390Z,4.90
2023-04-15T20:33:02.908Z,5.10
2023-04-15T20:38:04.623Z,5.30
2023-04-15T20:43:06.244Z,5.83
2023-04-15T20:48:08.012Z,6.10
2023-04-15T20:53:09.689Z,6.20
2023-04-15T20:58:11.988Z,7.37
2023-04-15T21:03:13.928Z,7.23
2023-04-15T21:08:15.752Z,7.60
2023-04-15T21:13:17.771Z,8.60
2023-04-15T21:18:20.825Z,9.00
2023-04-15T21:23:22.487Z,9.87
2023-04-15T21:28:24.178Z,10.43
2023-04-15T21:33:26.292Z,10.93
2023-04-15T21:38:27.944Z,11.47
2023-04-15T21:43:30.092Z,11.50
2023-04-15T21:48:31.782Z,12.33
2023-04-15T21:53:33.631Z,12.53
2023-04-15T21:58:35.391Z,11.33
2023-04-15T22:03:37.163Z,11.80
2023-04-15T22:08:48.817Z,12.13
2023-04-15T22:13:54.816Z,12.20
2023-04-15T22:18:56.545Z,15.23
2023-04-15T22:24:38.044Z,13.20
2023-04-15T22:29:19.990Z,12.90
2023-04-15T22:34:22.056Z,11.60
2023-04-15T22:39:23.723Z,11.97
2023-04-15T22:44:25.343Z,12.37
2023-04-15T22:49:27.426Z,11.67
2023-04-15T22:54:29.090Z,11.50
2023-04-15T22:59:30.974Z,11.00
2023-04-15T23:04:32.701Z,11.10
2023-04-15T23:09:34.504Z,11.20
2023-04-15T23:14:36.142Z,10.23
2023-04-15T23:19:37.763Z,10.33
2023-04-15T23:24:39.353Z,11.30
2023-04-15T23:29:40.996Z,10.77
2023-04-15T23:34:42.621Z,12.33
2023-04-15T23:39:44.679Z,10.57
2023-04-15T23:44:46.354Z,11.73
2023-04-15T23:49:47.923Z,11.23
2023-04-15T23:54:49.542Z,11.30
2023-04-15T23:59:51.273Z,11.33
